Terminal Aerodrome Forecast
Issued by NWS

Home | Current Version | Previous Version | Text Only | Print | Product List | Glossary On
Versions: 1 2 3 4 5 6 7 8 9 10 11 12 13 14 15 16
000
FTUS43 KDLH 100500
TAFBRD
TAF
KBRD 100532Z 1006/1106 VRB03KT P6SM SKC
      TEMPO 1008/1012 4SM BR
     FM101600 19009KT P6SM SCT050
     FM102100 20014KT P6SM SCT070
     FM110000 18008KT P6SM VCSH BKN060 WS020/20035KT=

USA.gov is the U.S. government's official web portal to all federal, state and local government web resources and services.